Oklahoma City, Oklahoma
Current Conditions -  °F | °C
As of 9:52 AM on Monday 24 Nov 2014 (Local Time) from KOKC Reporting Station
Scattered Clouds Scattered Clouds  
Wind Chill: 42°   Ceiling: Unl
Heat Index: 47°   Visibility: 10mi
Dew Point: 26°   Wind: 12mph
Humidity: 44%   Direction: 280°W
Pressure: 29.99"   Gusts: 22mph
Location:  35.47°N, 97.52°W
Report Text: KOKC 241552Z 28010G19KT 10SM SCT200 08/M03 A2999 RMK AO2 SLP156 T00831033
Loading
Personal Weather Stations






























Interactive Weather Map New forecast layout! Learn more

10-Day Weather Forecast

Advertisements
Track Severe Weather on mobile